createdAt,value
2022-11-24T00:01:10.742Z,100151.88
2022-11-24T00:03:37.344Z,100153.13
2022-11-24T00:06:05.175Z,100156.44
2022-11-24T00:08:31.719Z,100161.78
2022-11-24T00:11:02.543Z,100157.38
2022-11-24T00:13:29.117Z,100163.19
2022-11-24T00:16:03.710Z,100163.94
2022-11-24T00:18:30.243Z,100157.63
2022-11-24T00:20:56.765Z,100162.31
2022-11-24T00:23:23.308Z,100164.44
2022-11-24T00:25:49.924Z,100164.44
2022-11-24T00:28:16.416Z,100160.47
2022-11-24T00:30:43.023Z,100159.75
2022-11-24T00:33:09.531Z,100159.91
2022-11-24T00:35:36.036Z,100156.34
2022-11-24T00:38:02.606Z,100163.22
2022-11-24T00:40:34.743Z,100149.31
2022-11-24T00:43:01.665Z,100152.25
2022-11-24T00:45:28.180Z,100148.47
2022-11-24T00:47:54.719Z,100152.16
2022-11-24T00:50:21.415Z,100156.88
2022-11-24T00:52:48.041Z,100159.84
2022-11-24T00:55:14.611Z,100157.88
2022-11-24T00:57:41.255Z,100159.91
2022-11-24T01:00:08.395Z,100170.06
2022-11-24T01:02:35.019Z,100164.16
2022-11-24T01:05:03.362Z,100170.50
2022-11-24T01:07:30.689Z,100173.31
2022-11-24T01:09:57.228Z,100172.34
2022-11-24T01:12:23.711Z,100176.41
2022-11-24T01:14:50.283Z,100178.00
2022-11-24T01:17:16.803Z,100174.56
2022-11-24T01:19:43.512Z,100156.50
2022-11-24T01:22:10.045Z,100174.13
2022-11-24T01:24:36.659Z,100165.22
2022-11-24T01:27:03.274Z,100167.34
2022-11-24T01:29:29.917Z,100176.31
2022-11-24T01:31:56.458Z,100172.13
2022-11-24T01:34:23.106Z,100165.00
2022-11-24T01:36:49.670Z,100173.59
2022-11-24T01:39:16.237Z,100182.25
2022-11-24T01:41:42.790Z,100179.72
2022-11-24T01:44:26.209Z,100184.00
2022-11-24T01:46:54.679Z,100182.81
2022-11-24T01:49:34.989Z,100181.19
2022-11-24T01:52:06.666Z,100187.38
2022-11-24T01:54:36.092Z,100180.22
2022-11-24T01:57:06.684Z,100188.97
2022-11-24T01:59:33.309Z,100186.63
2022-11-24T02:01:59.952Z,100190.03
2022-11-24T02:04:29.549Z,100193.53
2022-11-24T02:06:57.782Z,100190.22
2022-11-24T02:09:27.943Z,100196.09
2022-11-24T02:11:55.193Z,100196.88
2022-11-24T02:14:23.111Z,100200.25
2022-11-24T02:16:50.583Z,100198.56
2022-11-24T02:19:35.822Z,100197.66
2022-11-24T02:22:03.121Z,100206.88
2022-11-24T02:24:45.519Z,100202.56
2022-11-24T02:27:12.105Z,100195.72
2022-11-24T02:29:39.956Z,100196.72
2022-11-24T02:32:07.621Z,100209.91
2022-11-24T02:34:34.357Z,100215.38
2022-11-24T02:37:01.164Z,100217.28
2022-11-24T02:39:28.097Z,100208.53
2022-11-24T02:42:01.652Z,100207.19
2022-11-24T02:44:29.899Z,100209.69
2022-11-24T02:47:05.873Z,100215.03
2022-11-24T02:49:32.512Z,100203.84
2022-11-24T02:51:59.247Z,100195.25
2022-11-24T02:54:26.051Z,100194.59
2022-11-24T02:56:52.767Z,100223.06
2022-11-24T02:59:19.464Z,100217.28
2022-11-24T03:01:46.038Z,100213.44
2022-11-24T03:04:12.901Z,100215.25
2022-11-24T03:06:39.632Z,100217.28
2022-11-24T03:09:06.655Z,100211.84
2022-11-24T03:11:33.261Z,100216.28
2022-11-24T03:13:59.763Z,100219.09
2022-11-24T03:16:26.527Z,100226.75
2022-11-24T03:18:53.830Z,100223.81
2022-11-24T03:21:20.356Z,100232.06
2022-11-24T03:23:47.276Z,100234.25
2022-11-24T03:26:16.419Z,100234.69
2022-11-24T03:28:43.160Z,100224.81
2022-11-24T03:31:10.224Z,100226.88
2022-11-24T03:33:36.795Z,100234.69
2022-11-24T03:36:09.948Z,100231.25
2022-11-24T03:38:40.485Z,100231.59
2022-11-24T03:41:07.263Z,100232.94
2022-11-24T03:43:36.792Z,100236.75
2022-11-24T03:46:09.265Z,100239.47
2022-11-24T03:48:35.951Z,100241.09
2022-11-24T03:51:04.978Z,100247.78
2022-11-24T03:53:32.357Z,100260.72
2022-11-24T03:55:59.648Z,100251.53
2022-11-24T03:58:26.344Z,100253.25
2022-11-24T04:00:54.118Z,100266.94
2022-11-24T04:03:20.837Z,100258.13
2022-11-24T04:05:47.453Z,100254.38
2022-11-24T04:08:17.555Z,100262.59
2022-11-24T04:10:44.399Z,100254.69
2022-11-24T04:13:15.128Z,100256.66
2022-11-24T04:15:42.567Z,100244.88
2022-11-24T04:18:12.363Z,100248.31
2022-11-24T04:20:39.285Z,100253.19
2022-11-24T04:23:06.131Z,100255.28
2022-11-24T04:25:32.964Z,100264.75
2022-11-24T04:27:59.720Z,100254.41
2022-11-24T04:30:27.052Z,100266.16
2022-11-24T04:32:54.062Z,100270.44
2022-11-24T04:35:20.973Z,100275.34
2022-11-24T04:37:47.827Z,100282.00
2022-11-24T04:40:18.607Z,100291.50
2022-11-24T04:42:52.453Z,100295.66
2022-11-24T04:45:18.974Z,100296.69
2022-11-24T04:47:48.805Z,100299.22
2022-11-24T04:50:15.645Z,100297.53
2022-11-24T04:52:43.438Z,100304.53
2022-11-24T04:55:10.352Z,100299.44
2022-11-24T04:57:36.974Z,100312.84
2022-11-24T05:00:04.424Z,100307.50
2022-11-24T05:02:31.005Z,100316.00
2022-11-24T05:04:57.654Z,100313.53
2022-11-24T05:07:24.259Z,100317.38
2022-11-24T05:10:09.420Z,100319.19
2022-11-24T05:12:35.923Z,100318.41
2022-11-24T05:15:03.934Z,100321.09
2022-11-24T05:17:34.061Z,100328.88
2022-11-24T05:20:00.781Z,100332.28
2022-11-24T05:22:28.494Z,100327.56
2022-11-24T05:24:55.101Z,100342.19
2022-11-24T05:27:21.964Z,100334.19
2022-11-24T05:29:48.562Z,100339.09
2022-11-24T05:32:15.055Z,100336.81
2022-11-24T05:34:41.787Z,100343.53
2022-11-24T05:37:08.380Z,100335.53
2022-11-24T05:39:35.958Z,100339.38
2022-11-24T05:42:22.132Z,100344.50
2022-11-24T05:44:48.785Z,100353.03
2022-11-24T05:47:15.372Z,100354.16
2022-11-24T05:49:42.171Z,100346.72
2022-11-24T05:52:09.140Z,100349.16
2022-11-24T05:54:35.909Z,100350.47
2022-11-24T05:57:02.591Z,100354.84
2022-11-24T05:59:29.196Z,100354.16
2022-11-24T06:01:55.841Z,100351.72
2022-11-24T06:04:22.513Z,100351.88
2022-11-24T06:06:49.250Z,100347.66
2022-11-24T06:09:15.759Z,100352.63
2022-11-24T06:11:42.330Z,100359.13
2022-11-24T06:14:11.312Z,100366.06
2022-11-24T06:16:38.360Z,100368.94
2022-11-24T06:19:05.017Z,100372.06
2022-11-24T06:21:31.969Z,100373.41
2022-11-24T06:23:58.696Z,100388.97
2022-11-24T06:26:25.337Z,100386.94
2022-11-24T06:28:51.862Z,100394.81
2022-11-24T06:31:18.926Z,100397.28
2022-11-24T06:33:45.724Z,100392.91
2022-11-24T06:36:13.335Z,100395.50
2022-11-24T06:38:39.934Z,100398.22
2022-11-24T06:41:12.445Z,100401.38
2022-11-24T06:43:39.882Z,100399.50
2022-11-24T06:46:06.641Z,100399.50
2022-11-24T06:48:42.753Z,100401.22
2022-11-24T06:51:10.964Z,100413.47
2022-11-24T06:53:38.402Z,100410.03
2022-11-24T06:56:15.274Z,100420.25
2022-11-24T06:58:44.413Z,100412.94
2022-11-24T07:01:14.763Z,100414.72
2022-11-24T07:03:41.372Z,100414.94
2022-11-24T07:06:11.097Z,100424.34
2022-11-24T07:08:43.202Z,100423.38
2022-11-24T07:11:12.234Z,100422.44
2022-11-24T07:13:39.233Z,100417.19
2022-11-24T07:16:23.817Z,100425.84
2022-11-24T07:18:59.962Z,100420.72
2022-11-24T07:21:32.490Z,100420.63
2022-11-24T07:24:04.162Z,100422.34
2022-11-24T07:26:45.494Z,100421.06
2022-11-24T07:29:13.171Z,100426.53
2022-11-24T07:31:46.198Z,100437.63
2022-11-24T07:34:19.067Z,100441.69
2022-11-24T07:37:04.358Z,100443.56
2022-11-24T07:39:40.665Z,100441.50
2022-11-24T07:42:19.501Z,100453.59
2022-11-24T07:44:49.574Z,100456.59
2022-11-24T07:47:21.271Z,100466.72
2022-11-24T07:49:55.008Z,100463.06
2022-11-24T07:52:28.476Z,100462.97
2022-11-24T07:55:01.076Z,100460.91
2022-11-24T07:57:30.595Z,100465.16
2022-11-24T08:00:00.080Z,100463.06
2022-11-24T08:05:21.920Z,100464.66
2022-11-24T08:10:55.111Z,100469.81
2022-11-24T08:13:33.099Z,100463.81
2022-11-24T08:16:32.800Z,100467.22
2022-11-24T08:19:14.978Z,100479.16
2022-11-24T08:24:46.961Z,100469.56
2022-11-24T08:27:14.959Z,100467.59
2022-11-24T08:29:46.757Z,100470.78
2022-11-24T08:32:22.085Z,100465.50
2022-11-24T08:35:12.997Z,100473.03
2022-11-24T08:37:46.622Z,100473.88
2022-11-24T08:40:16.878Z,100475.41
2022-11-24T08:42:51.277Z,100477.19
2022-11-24T08:45:23.075Z,100490.78
2022-11-24T08:47:54.418Z,100486.16
2022-11-24T08:50:21.645Z,100482.88
2022-11-24T08:52:48.576Z,100499.69
2022-11-24T08:55:15.347Z,100502.56
2022-11-24T08:57:42.158Z,100495.94
2022-11-24T09:00:09.430Z,100489.84
2022-11-24T09:02:36.369Z,100498.19
2022-11-24T09:05:03.325Z,100500.56
2022-11-24T09:07:31.754Z,100494.16
2022-11-24T09:09:59.495Z,100500.53
2022-11-24T09:12:26.321Z,100506.91
2022-11-24T09:14:52.930Z,100508.41
2022-11-24T09:17:19.417Z,100507.25
2022-11-24T09:19:46.691Z,100514.91
2022-11-24T09:22:13.668Z,100510.34
2022-11-24T09:24:40.299Z,100516.47
2022-11-24T09:27:06.858Z,100520.22
2022-11-24T09:29:33.780Z,100519.66
2022-11-24T09:32:06.299Z,100532.56
2022-11-24T09:34:33.501Z,100520.34
2022-11-24T09:37:01.319Z,100525.22
2022-11-24T09:39:27.904Z,100526.59
2022-11-24T09:42:00.472Z,100529.22
2022-11-24T09:44:33.312Z,100536.53
2022-11-24T09:47:20.329Z,100529.97
2022-11-24T09:49:54.930Z,100529.03
2022-11-24T09:52:31.366Z,100526.19
2022-11-24T09:55:00.454Z,100530.31
2022-11-24T09:57:34.284Z,100544.09
2022-11-24T10:00:10.885Z,100538.06
2022-11-24T10:02:40.405Z,100535.34
2022-11-24T10:05:07.311Z,100533.00
2022-11-24T10:07:38.190Z,100529.59
2022-11-24T10:10:22.856Z,100528.78
2022-11-24T10:13:00.105Z,100528.69
2022-11-24T10:15:36.126Z,100530.22
2022-11-24T10:18:21.148Z,100537.72
2022-11-24T10:20:59.991Z,100539.03
2022-11-24T10:23:45.499Z,100540.84
2022-11-24T10:26:18.073Z,100532.16
2022-11-24T10:29:07.626Z,100535.47
2022-11-24T10:31:40.431Z,100532.34
2022-11-24T10:34:28.374Z,100546.53
2022-11-24T10:37:04.235Z,100544.13
2022-11-24T10:39:36.506Z,100546.84
2022-11-24T10:42:15.297Z,100542.38
2022-11-24T10:45:31.308Z,100549.44
2022-11-24T10:47:58.546Z,100549.63
2022-11-24T10:50:34.329Z,100560.31
2022-11-24T10:53:09.684Z,100565.31
2022-11-24T10:56:01.335Z,100562.78
2022-11-24T10:58:38.071Z,100564.94
2022-11-24T11:01:17.474Z,100563.69
2022-11-24T11:03:50.047Z,100564.59
2022-11-24T11:06:22.696Z,100555.09
2022-11-24T11:09:25.582Z,100552.31
2022-11-24T11:11:54.021Z,100556.41
2022-11-24T11:14:40.867Z,100558.56
2022-11-24T11:17:27.481Z,100552.94
2022-11-24T11:20:01.968Z,100551.47
2022-11-24T11:22:32.920Z,100554.47
2022-11-24T11:25:11.912Z,100560.66
2022-11-24T11:27:39.309Z,100556.50
2022-11-24T11:35:50.282Z,100553.53
2022-11-24T11:38:18.985Z,100558.31
2022-11-24T11:40:47.574Z,100550.34
2022-11-24T11:43:26.781Z,100559.50
2022-11-24T11:46:12.741Z,100562.00
2022-11-24T11:48:44.087Z,100559.50
2022-11-24T11:51:27.738Z,100558.47
2022-11-24T11:54:00.782Z,100558.53
2022-11-24T11:56:33.009Z,100568.06
2022-11-24T11:58:59.456Z,100569.78
2022-11-24T12:01:58.676Z,100575.13
2022-11-24T12:04:43.796Z,100577.56
2022-11-24T12:07:30.780Z,100577.44
2022-11-24T12:10:16.368Z,100572.91
2022-11-24T12:13:11.258Z,100569.66
2022-11-24T12:15:46.740Z,100559.19
2022-11-24T12:18:48.417Z,100561.81
2022-11-24T12:21:11.676Z,100564.34
2022-11-24T12:23:38.217Z,100556.22
2022-11-24T12:26:24.380Z,100560.50
2022-11-24T12:28:56.692Z,100554.53
2022-11-24T12:31:42.141Z,100558.84
2022-11-24T12:34:08.849Z,100557.28
2022-11-24T12:36:54.172Z,100570.44
2022-11-24T12:39:28.345Z,100569.97
2022-11-24T12:41:54.825Z,100572.22
2022-11-24T12:44:40.266Z,100570.69
2022-11-24T12:47:27.443Z,100568.22
2022-11-24T12:49:59.981Z,100564.38
2022-11-24T12:52:29.942Z,100570.69
2022-11-24T12:54:56.932Z,100570.50
2022-11-24T12:57:26.261Z,100566.78
2022-11-24T13:00:15.943Z,100566.53
2022-11-24T13:02:57.658Z,100575.13
2022-11-24T13:05:29.566Z,100570.63
2022-11-24T13:07:57.695Z,100571.50
2022-11-24T13:10:53.519Z,100568.63
2022-11-24T13:13:14.530Z,100580.88
2022-11-24T13:16:34.783Z,100591.25
2022-11-24T13:18:53.686Z,100582.34
2022-11-24T13:21:33.788Z,100586.06
2022-11-24T13:24:02.163Z,100586.88
2022-11-24T13:26:30.072Z,100594.66
2022-11-24T13:29:17.970Z,100607.75
2022-11-24T13:31:51.141Z,100603.84
2022-11-24T13:34:36.522Z,100616.50
2022-11-24T13:37:33.690Z,100620.53
2022-11-24T13:39:51.166Z,100625.84
2022-11-24T13:42:44.056Z,100623.19
2022-11-24T13:45:07.071Z,100628.06
2022-11-24T13:47:33.497Z,100626.94
2022-11-24T13:50:00.851Z,100629.13
2022-11-24T13:52:36.338Z,100634.19
2022-11-24T13:55:10.053Z,100642.09
2022-11-24T13:57:53.004Z,100633.97
2022-11-24T14:00:24.224Z,100643.53
2022-11-24T14:02:52.418Z,100635.09
2022-11-24T14:05:47.933Z,100642.16
2022-11-24T14:08:24.268Z,100649.44
2022-11-24T14:10:51.815Z,100655.19
2022-11-24T14:13:21.200Z,100653.66
2022-11-24T14:16:00.811Z,100664.06
2022-11-24T14:18:48.753Z,100660.78
2022-11-24T14:21:24.795Z,100660.13
2022-11-24T14:23:56.331Z,100665.25
2022-11-24T14:26:34.226Z,100665.38
2022-11-24T14:29:14.955Z,100665.47
2022-11-24T14:31:42.102Z,100665.47
2022-11-24T14:34:11.670Z,100666.22
2022-11-24T14:36:38.891Z,100673.34
2022-11-24T14:39:05.901Z,100667.34
2022-11-24T14:41:33.922Z,100664.66
2022-11-24T14:44:04.933Z,100670.00
2022-11-24T14:46:32.194Z,100672.38
2022-11-24T14:48:58.963Z,100678.66
2022-11-24T14:51:28.193Z,100682.34
2022-11-24T14:54:00.831Z,100688.31
2022-11-24T14:56:32.854Z,100696.19
2022-11-24T14:58:59.590Z,100688.56
2022-11-24T15:01:31.482Z,100692.06
2022-11-24T15:04:26.459Z,100690.25
2022-11-24T15:07:02.283Z,100691.16
2022-11-24T15:09:39.652Z,100690.44
2022-11-24T15:12:07.428Z,100697.25
2022-11-24T15:14:40.323Z,100692.94
2022-11-24T15:17:07.001Z,100705.06
2022-11-24T15:19:34.397Z,100704.03
2022-11-24T15:22:00.965Z,100702.47
2022-11-24T15:24:27.765Z,100705.19
2022-11-24T15:27:01.127Z,100704.19
2022-11-24T15:29:27.628Z,100709.88
2022-11-24T15:31:54.161Z,100717.19
2022-11-24T15:34:20.690Z,100719.06
2022-11-24T15:36:47.210Z,100726.91
2022-11-24T15:39:13.649Z,100731.31
2022-11-24T15:41:40.587Z,100733.84
2022-11-24T15:44:07.898Z,100732.16
2022-11-24T15:46:38.149Z,100740.63
2022-11-24T15:49:05.465Z,100748.31
2022-11-24T15:51:32.244Z,100736.72
2022-11-24T15:54:01.039Z,100742.09
2022-11-24T15:56:34.587Z,100744.66
2022-11-24T15:59:01.469Z,100754.31
2022-11-24T16:01:30.424Z,100747.31
2022-11-24T16:03:57.025Z,100743.94
2022-11-24T16:06:24.996Z,100749.91
2022-11-24T16:08:52.326Z,100747.38
2022-11-24T16:11:18.833Z,100758.66
2022-11-24T16:13:51.502Z,100751.78
2022-11-24T16:16:19.406Z,100747.38
2022-11-24T16:18:46.031Z,100748.66
2022-11-24T16:21:18.535Z,100752.66
2022-11-24T16:23:51.342Z,100751.34
2022-11-24T16:26:21.116Z,100762.16
2022-11-24T16:28:47.635Z,100769.75
2022-11-24T16:31:43.269Z,100765.78
2022-11-24T16:34:17.566Z,100776.44
2022-11-24T16:36:47.501Z,100772.25
2022-11-24T16:39:22.486Z,100787.09
2022-11-24T16:42:01.047Z,100783.09
2022-11-24T16:44:38.154Z,100778.44
2022-11-24T16:47:23.026Z,100782.03
2022-11-24T16:49:55.526Z,100777.88
2022-11-24T16:52:30.900Z,100774.81
2022-11-24T16:54:58.311Z,100779.28
2022-11-24T16:57:32.191Z,100779.28
2022-11-24T16:59:58.691Z,100782.84
2022-11-24T17:02:27.682Z,100782.97
2022-11-24T17:04:55.640Z,100782.38
2022-11-24T17:07:25.353Z,100792.69
2022-11-24T17:09:52.337Z,100787.47
2022-11-24T17:12:18.959Z,100782.16
2022-11-24T17:15:03.050Z,100788.13
2022-11-24T17:18:01.221Z,100788.97
2022-11-24T17:20:28.279Z,100780.38
2022-11-24T17:23:00.253Z,100792.28
2022-11-24T17:25:26.920Z,100786.09
2022-11-24T17:27:54.167Z,100787.84
2022-11-24T17:30:20.684Z,100789.50
2022-11-24T17:32:50.222Z,100784.19
2022-11-24T17:35:25.208Z,100792.09
2022-11-24T17:37:59.788Z,100791.63
2022-11-24T17:40:28.981Z,100790.66
2022-11-24T17:42:59.748Z,100796.69
2022-11-24T17:45:27.563Z,100797.59
2022-11-24T17:47:54.710Z,100799.34
2022-11-24T17:50:26.021Z,100798.50
2022-11-24T17:52:54.544Z,100809.69
2022-11-24T17:55:21.461Z,100797.53
2022-11-24T17:57:48.002Z,100792.34
2022-11-24T18:00:15.141Z,100789.72
2022-11-24T18:02:43.416Z,100799.34
2022-11-24T18:05:10.009Z,100815.03
2022-11-24T18:07:41.394Z,100815.22
2022-11-24T18:10:10.392Z,100817.66
2022-11-24T18:12:39.909Z,100810.97
2022-11-24T18:15:06.965Z,100815.38
2022-11-24T18:17:33.492Z,100818.94
2022-11-24T18:20:00.404Z,100829.34
2022-11-24T18:22:50.172Z,100826.00
2022-11-24T18:25:13.891Z,100819.22
2022-11-24T18:27:41.522Z,100818.53
2022-11-24T18:30:20.820Z,100819.50
2022-11-24T18:32:50.475Z,100824.00
2022-11-24T18:35:17.177Z,100825.94
2022-11-24T18:37:44.656Z,100828.03
2022-11-24T18:40:12.054Z,100825.91
2022-11-24T18:42:41.632Z,100828.56
2022-11-24T18:45:10.797Z,100822.75
2022-11-24T18:47:37.403Z,100818.94
2022-11-24T18:50:04.216Z,100820.03
2022-11-24T18:52:31.017Z,100823.81
2022-11-24T18:55:03.987Z,100824.09
2022-11-24T18:57:31.768Z,100826.03
2022-11-24T18:59:58.646Z,100825.28
2022-11-24T19:02:25.285Z,100834.22
2022-11-24T19:04:54.225Z,100825.09
2022-11-24T19:07:21.985Z,100830.59
2022-11-24T19:09:49.708Z,100822.03
2022-11-24T19:12:16.543Z,100829.84
2022-11-24T19:14:51.470Z,100825.59
2022-11-24T19:17:32.669Z,100825.78
2022-11-24T19:20:07.919Z,100819.75
2022-11-24T19:22:34.428Z,100837.09
2022-11-24T19:25:04.090Z,100837.22
2022-11-24T19:27:34.376Z,100835.59
2022-11-24T19:30:00.840Z,100839.94
2022-11-24T19:32:27.523Z,100823.56
2022-11-24T19:34:56.546Z,100831.31
2022-11-24T19:37:23.780Z,100842.47
2022-11-24T19:39:50.410Z,100844.38
2022-11-24T19:42:16.874Z,100841.03
2022-11-24T19:44:43.488Z,100846.25
2022-11-24T19:47:16.511Z,100840.34
2022-11-24T19:49:43.282Z,100844.78
2022-11-24T19:52:10.022Z,100854.31
2022-11-24T19:54:36.952Z,100863.91
2022-11-24T19:57:03.750Z,100866.69
2022-11-24T19:59:30.476Z,100868.59
2022-11-24T20:01:59.653Z,100863.53
2022-11-24T20:04:26.237Z,100866.22
2022-11-24T20:06:55.115Z,100860.31
2022-11-24T20:09:21.956Z,100862.91
2022-11-24T20:11:50.906Z,100872.34
2022-11-24T20:14:19.346Z,100875.00
2022-11-24T20:16:47.788Z,100876.09
2022-11-24T20:19:15.913Z,100880.53
2022-11-24T20:21:46.501Z,100880.41
2022-11-24T20:24:20.483Z,100882.84
2022-11-24T20:26:51.244Z,100890.41
2022-11-24T20:29:20.670Z,100900.00
2022-11-24T20:31:48.885Z,100897.28
2022-11-24T20:34:16.091Z,100905.06
2022-11-24T20:36:46.911Z,100900.63
2022-11-24T20:39:15.200Z,100900.63
2022-11-24T20:41:41.856Z,100899.56
2022-11-24T20:44:10.631Z,100897.72
2022-11-24T20:46:38.247Z,100903.59
2022-11-24T20:49:07.488Z,100916.44
2022-11-24T20:51:35.572Z,100911.97
2022-11-24T20:54:03.995Z,100914.34
2022-11-24T20:56:32.119Z,100906.56
2022-11-24T20:59:19.657Z,100916.88
2022-11-24T21:01:46.859Z,100907.09
2022-11-24T21:04:21.575Z,100912.09
2022-11-24T21:06:48.324Z,100912.09
2022-11-24T21:09:15.619Z,100913.78
2022-11-24T21:11:47.535Z,100909.50
2022-11-24T21:14:14.410Z,100917.06
2022-11-24T21:16:42.102Z,100912.69
2022-11-24T21:19:13.786Z,100911.88
2022-11-24T21:21:45.476Z,100913.56
2022-11-24T21:24:13.519Z,100907.47
2022-11-24T21:26:43.660Z,100910.09
2022-11-24T21:29:14.366Z,100913.41
2022-11-24T21:31:41.570Z,100916.97
2022-11-24T21:34:19.816Z,100915.19
2022-11-24T21:36:46.585Z,100923.78
2022-11-24T21:39:14.219Z,100932.41
2022-11-24T21:41:42.311Z,100925.56
2022-11-24T21:44:10.468Z,100928.03
2022-11-24T21:46:44.655Z,100931.50
2022-11-24T21:49:13.589Z,100933.16
2022-11-24T21:51:40.447Z,100929.75
2022-11-24T21:54:07.175Z,100938.22
2022-11-24T21:56:33.922Z,100939.19
2022-11-24T21:59:00.500Z,100940.84
2022-11-24T22:01:28.822Z,100932.22
2022-11-24T22:04:09.431Z,100939.88
2022-11-24T22:06:37.888Z,100930.44
2022-11-24T22:09:07.844Z,100934.84
2022-11-24T22:11:34.392Z,100939.13
2022-11-24T22:14:00.974Z,100938.13
2022-11-24T22:16:27.617Z,100939.88
2022-11-24T22:18:54.262Z,100931.94
2022-11-24T22:21:33.616Z,100941.47
2022-11-24T22:24:00.715Z,100938.03
2022-11-24T22:26:28.076Z,100937.91
2022-11-24T22:28:55.139Z,100949.00
2022-11-24T22:31:26.165Z,100950.72
2022-11-24T22:33:53.400Z,100950.75
2022-11-24T22:36:23.343Z,100954.13
2022-11-24T22:38:55.787Z,100943.72
2022-11-24T22:41:22.505Z,100946.34
2022-11-24T22:43:49.388Z,100953.19
2022-11-24T22:46:17.070Z,100955.75
2022-11-24T22:48:45.292Z,100951.44
2022-11-24T22:51:13.205Z,100959.22
2022-11-24T22:53:39.998Z,100950.59
2022-11-24T22:56:09.454Z,100953.19
2022-11-24T22:58:36.455Z,100961.69
2022-11-24T23:01:10.369Z,100948.84
2022-11-24T23:03:37.568Z,100959.00
2022-11-24T23:06:06.529Z,100957.31
2022-11-24T23:08:34.162Z,100951.31
2022-11-24T23:11:08.496Z,100955.69
2022-11-24T23:13:36.610Z,100955.56
2022-11-24T23:16:05.474Z,100956.38
2022-11-24T23:18:32.799Z,100960.66
2022-11-24T23:21:05.746Z,100963.06
2022-11-24T23:23:32.690Z,100975.06
2022-11-24T23:26:03.828Z,100980.31
2022-11-24T23:28:30.644Z,100974.19
2022-11-24T23:31:01.341Z,100975.00
2022-11-24T23:33:27.879Z,100967.25
2022-11-24T23:35:54.326Z,100969.84
2022-11-24T23:38:20.840Z,100969.72
2022-11-24T23:40:47.308Z,100980.16
2022-11-24T23:43:13.806Z,100978.41
2022-11-24T23:45:40.357Z,100979.31
2022-11-24T23:48:08.591Z,100975.09
2022-11-24T23:50:35.365Z,100970.66
2022-11-24T23:53:01.860Z,100979.06
2022-11-24T23:55:28.388Z,100977.28
2022-11-24T23:57:54.928Z,100978.19
